createdAt,value
2018-05-25T00:00:24.871Z,100498.42
2018-05-25T00:02:52.478Z,100503.09
2018-05-25T00:05:20.127Z,100499.25
2018-05-25T00:07:47.742Z,100505.57
2018-05-25T00:10:15.383Z,100505.80
2018-05-25T00:12:43.022Z,100494.89
2018-05-25T00:15:10.646Z,100506.52
2018-05-25T00:17:38.294Z,100500.80
2018-05-25T00:20:05.907Z,100509.45
2018-05-25T00:22:33.563Z,100512.36
2018-05-25T00:25:01.180Z,100510.27
2018-05-25T00:27:28.833Z,100509.11
2018-05-25T00:29:57.123Z,100506.30
2018-05-25T00:32:24.768Z,100499.71
2018-05-25T00:34:52.376Z,100508.16
2018-05-25T00:37:20.018Z,100499.83
2018-05-25T00:39:47.630Z,100501.48
2018-05-25T00:42:15.278Z,100501.90
2018-05-25T00:44:42.899Z,100500.01
2018-05-25T00:47:10.547Z,100500.23
2018-05-25T00:49:38.160Z,100496.05
2018-05-25T00:52:05.818Z,100495.73
2018-05-25T00:54:33.432Z,100497.08
2018-05-25T00:57:01.093Z,100500.52
2018-05-25T00:59:28.698Z,100500.73
2018-05-25T01:01:56.347Z,100498.53
2018-05-25T01:04:23.961Z,100505.45
2018-05-25T01:06:51.625Z,100508.93
2018-05-25T01:09:19.244Z,100505.68
2018-05-25T01:11:46.903Z,100502.78
2018-05-25T01:14:14.519Z,100506.95
2018-05-25T01:16:42.174Z,100505.74
2018-05-25T01:19:09.790Z,100499.77
2018-05-25T01:21:37.448Z,100496.22
2018-05-25T01:24:05.062Z,100495.18
2018-05-25T01:26:32.727Z,100493.14
2018-05-25T01:29:00.447Z,100495.74
2018-05-25T01:31:28.103Z,100496.29
2018-05-25T01:33:55.803Z,100493.41
2018-05-25T01:36:23.454Z,100488.84
2018-05-25T01:38:51.070Z,100488.00
2018-05-25T01:41:18.730Z,100482.52
2018-05-25T01:43:46.355Z,100484.55
2018-05-25T01:46:14.014Z,100487.62
2018-05-25T01:48:41.622Z,100481.69
2018-05-25T01:51:09.266Z,100482.20
2018-05-25T01:53:36.879Z,100478.95
2018-05-25T01:56:04.540Z,100481.69
2018-05-25T01:58:32.158Z,100478.03
2018-05-25T02:00:59.819Z,100479.47
2018-05-25T02:03:27.435Z,100474.45
2018-05-25T02:05:55.091Z,100483.22
2018-05-25T02:08:22.708Z,100485.31
2018-05-25T02:10:50.322Z,100474.37
2018-05-25T02:13:17.980Z,100482.39
2018-05-25T02:15:45.673Z,100481.26
2018-05-25T02:18:13.331Z,100479.30
2018-05-25T02:20:40.947Z,100477.92
2018-05-25T02:23:08.619Z,100481.07
2018-05-25T02:25:36.239Z,100473.98
2018-05-25T02:28:03.894Z,100487.38
2018-05-25T02:30:31.512Z,100478.53
2018-05-25T02:32:59.319Z,100479.62
2018-05-25T02:35:26.931Z,100484.80
2018-05-25T02:37:54.591Z,100484.41
2018-05-25T02:40:22.347Z,100484.84
2018-05-25T02:42:49.995Z,100480.36
2018-05-25T02:45:17.615Z,100477.05
2018-05-25T02:47:45.279Z,100477.48
2018-05-25T02:50:12.895Z,100482.57
2018-05-25T02:52:40.556Z,100491.09
2018-05-25T02:55:08.175Z,100487.69
2018-05-25T02:57:35.833Z,100482.38
2018-05-25T03:00:03.522Z,100482.64
2018-05-25T03:02:31.175Z,100481.22
2018-05-25T03:04:58.791Z,100481.27
2018-05-25T03:07:26.442Z,100479.89
2018-05-25T03:09:54.123Z,100486.53
2018-05-25T03:12:21.776Z,100490.45
2018-05-25T03:14:49.394Z,100501.22
2018-05-25T03:17:17.054Z,100498.80
2018-05-25T03:19:44.680Z,100493.23
2018-05-25T03:22:12.341Z,100491.30
2018-05-25T03:24:39.963Z,100488.60
2018-05-25T03:27:07.623Z,100490.66
2018-05-25T03:29:35.232Z,100491.23
2018-05-25T03:32:02.886Z,100496.27
2018-05-25T03:34:30.500Z,100498.83
2018-05-25T03:36:58.154Z,100498.22
2018-05-25T03:39:25.766Z,100501.14
2018-05-25T03:41:53.418Z,100495.41
2018-05-25T03:44:21.035Z,100494.50
2018-05-25T03:46:48.703Z,100497.44
2018-05-25T03:49:16.311Z,100504.91
2018-05-25T03:51:43.969Z,100503.78
2018-05-25T03:54:11.602Z,100503.76
2018-05-25T03:56:39.252Z,100505.93
2018-05-25T03:59:18.780Z,100503.98
2018-05-25T04:01:58.370Z,100512.90
2018-05-25T04:04:25.988Z,100509.47
2018-05-25T04:06:53.644Z,100505.31
2018-05-25T04:09:21.263Z,100512.40
2018-05-25T04:11:48.928Z,100513.55
2018-05-25T04:14:16.550Z,100517.42
2018-05-25T04:16:44.212Z,100510.21
2018-05-25T04:19:11.833Z,100507.28
2018-05-25T04:21:39.491Z,100512.69
2018-05-25T04:24:07.102Z,100513.34
2018-05-25T04:26:34.726Z,100509.42
2018-05-25T04:29:02.383Z,100515.28
2018-05-25T04:31:29.996Z,100514.58
2018-05-25T04:33:57.651Z,100515.30
2018-05-25T04:36:25.270Z,100522.40
2018-05-25T04:38:52.926Z,100519.74
2018-05-25T04:41:20.534Z,100523.59
2018-05-25T04:43:48.187Z,100534.38
2018-05-25T04:46:15.799Z,100523.44
2018-05-25T04:48:43.459Z,100529.00
2018-05-25T04:51:11.079Z,100522.56
2018-05-25T04:53:38.802Z,100528.45
2018-05-25T04:56:06.388Z,100540.48
2018-05-25T04:58:34.048Z,100544.04
2018-05-25T05:01:01.666Z,100550.19
2018-05-25T05:03:29.323Z,100546.00
2018-05-25T05:05:56.936Z,100553.42
2018-05-25T05:08:24.599Z,100549.21
2018-05-25T05:10:52.211Z,100547.35
2018-05-25T05:13:20.027Z,100553.34
2018-05-25T05:15:47.649Z,100546.89
2018-05-25T05:18:15.299Z,100539.69
2018-05-25T05:20:42.907Z,100541.97
2018-05-25T05:23:10.563Z,100539.10
2018-05-25T05:25:38.184Z,100545.16
2018-05-25T05:28:05.844Z,100545.37
2018-05-25T05:30:33.548Z,100537.47
2018-05-25T05:33:01.203Z,100544.38
2018-05-25T05:35:28.830Z,100546.38
2018-05-25T05:37:56.492Z,100549.53
2018-05-25T05:40:24.103Z,100552.45
2018-05-25T05:42:51.755Z,100553.45
2018-05-25T05:45:19.366Z,100546.74
2018-05-25T05:47:47.023Z,100544.80
2018-05-25T05:50:14.642Z,100551.52
2018-05-25T05:52:42.294Z,100559.56
2018-05-25T05:55:09.907Z,100554.83
2018-05-25T05:57:37.563Z,100554.67
2018-05-25T06:00:05.188Z,100557.83
2018-05-25T06:02:32.851Z,100557.83
2018-05-25T06:05:00.466Z,100558.19
2018-05-25T06:07:28.130Z,100560.64
2018-05-25T06:09:55.750Z,100562.92
2018-05-25T06:12:23.433Z,100566.55
2018-05-25T06:14:51.051Z,100574.44
2018-05-25T06:17:18.711Z,100574.69
2018-05-25T06:19:46.331Z,100582.78
2018-05-25T06:22:13.988Z,100585.55
2018-05-25T06:24:41.599Z,100587.92
2018-05-25T06:27:09.258Z,100586.40
2018-05-25T06:29:36.870Z,100583.86
2018-05-25T06:32:04.498Z,100583.59
2018-05-25T06:34:32.469Z,100592.86
2018-05-25T06:37:00.334Z,100595.97
2018-05-25T06:39:28.095Z,100600.70
2018-05-25T06:41:55.817Z,100596.20
2018-05-25T06:44:23.781Z,100593.23
2018-05-25T06:46:51.598Z,100597.64
2018-05-25T06:49:19.416Z,100602.24
2018-05-25T06:51:47.108Z,100610.53
2018-05-25T06:54:14.890Z,100602.14
2018-05-25T06:56:42.616Z,100612.25
2018-05-25T06:59:10.422Z,100612.33
2018-05-25T07:01:38.128Z,100618.58
2018-05-25T07:04:06.001Z,100608.75
2018-05-25T07:06:33.815Z,100612.71
2018-05-25T07:09:01.627Z,100614.67
2018-05-25T07:11:29.447Z,100617.03
2018-05-25T07:13:57.315Z,100610.45
2018-05-25T07:16:25.079Z,100610.13
2018-05-25T07:18:52.735Z,100611.47
2018-05-25T07:21:20.350Z,100612.13
2018-05-25T07:23:48.011Z,100621.45
2018-05-25T07:26:15.624Z,100617.31
2018-05-25T07:28:43.290Z,100624.75
2018-05-25T07:31:11.004Z,100624.65
2018-05-25T07:33:38.821Z,100632.95
2018-05-25T07:36:06.582Z,100632.66
2018-05-25T07:38:34.448Z,100631.73
2018-05-25T07:41:02.172Z,100631.16
2018-05-25T07:43:29.980Z,100628.94
2018-05-25T07:45:57.705Z,100627.45
2018-05-25T07:48:25.471Z,100629.67
2018-05-25T07:50:53.269Z,100631.66
2018-05-25T07:53:21.082Z,100631.39
2018-05-25T07:55:48.900Z,100628.05
2018-05-25T07:58:16.717Z,100622.72
2018-05-25T08:00:44.533Z,100625.59
2018-05-25T08:03:12.400Z,100620.61
2018-05-25T08:05:40.117Z,100635.23
2018-05-25T08:08:07.929Z,100626.84
2018-05-25T08:10:35.695Z,100623.64
2018-05-25T08:13:03.563Z,100624.35
2018-05-25T08:15:31.285Z,100625.75
2018-05-25T08:17:59.004Z,100630.16
2018-05-25T08:20:26.649Z,100624.67
2018-05-25T08:22:54.516Z,100637.69
2018-05-25T08:25:22.175Z,100622.90
2018-05-25T08:27:49.830Z,100626.38
2018-05-25T08:30:17.502Z,100633.67
2018-05-25T08:32:45.471Z,100631.16
2018-05-25T08:35:13.338Z,100637.89
2018-05-25T08:37:41.106Z,100635.98
2018-05-25T08:40:08.972Z,100641.00
2018-05-25T08:42:36.734Z,100640.80
2018-05-25T08:45:04.568Z,100645.75
2018-05-25T08:47:32.307Z,100646.70
2018-05-25T08:50:00.024Z,100646.77
2018-05-25T08:52:27.791Z,100651.26
2018-05-25T08:54:55.659Z,100648.11
2018-05-25T08:57:23.425Z,100649.42
2018-05-25T08:59:51.452Z,100649.14
2018-05-25T09:02:19.158Z,100652.34
2018-05-25T09:04:47.025Z,100645.47
2018-05-25T09:07:14.686Z,100643.30
2018-05-25T09:09:42.355Z,100643.57
2018-05-25T09:12:10.007Z,100641.28
2018-05-25T09:14:37.772Z,100643.80
2018-05-25T09:17:05.484Z,100634.84
2018-05-25T09:19:33.203Z,100639.28
2018-05-25T09:22:00.967Z,100638.58
2018-05-25T09:24:28.833Z,100636.55
2018-05-25T09:26:56.597Z,100637.13
2018-05-25T09:29:24.465Z,100644.50
2018-05-25T09:31:52.186Z,100637.08
2018-05-25T09:34:19.993Z,100640.87
2018-05-25T09:36:47.721Z,100643.22
2018-05-25T09:39:15.523Z,100635.66
2018-05-25T09:41:43.180Z,100634.80
2018-05-25T09:44:11.052Z,100639.91
2018-05-25T09:46:38.817Z,100647.27
2018-05-25T09:49:06.683Z,100641.81
2018-05-25T09:51:34.424Z,100639.38
2018-05-25T09:54:02.165Z,100637.63
2018-05-25T09:56:29.978Z,100642.73
2018-05-25T09:58:57.849Z,100641.51
2018-05-25T10:01:25.712Z,100638.73
2018-05-25T10:03:53.577Z,100635.12
2018-05-25T10:06:21.342Z,100638.94
2018-05-25T10:08:49.209Z,100642.88
2018-05-25T10:11:16.968Z,100652.61
2018-05-25T10:13:44.631Z,100648.73
2018-05-25T10:16:12.255Z,100645.22
2018-05-25T10:18:39.906Z,100639.20
2018-05-25T10:21:07.537Z,100629.80
2018-05-25T10:23:35.255Z,100634.55
2018-05-25T10:26:02.878Z,100626.73
2018-05-25T10:28:30.527Z,100627.95
2018-05-25T10:30:58.176Z,100630.09
2018-05-25T10:33:25.839Z,100617.27
2018-05-25T10:35:53.455Z,100626.80
2018-05-25T10:38:21.118Z,100618.52
2018-05-25T10:40:48.737Z,100621.08
2018-05-25T10:43:16.491Z,100608.79
2018-05-25T10:45:44.116Z,100617.80
2018-05-25T10:48:11.806Z,100609.33
2018-05-25T10:50:39.594Z,100607.42
2018-05-25T10:53:07.210Z,100610.59
2018-05-25T10:55:34.863Z,100612.16
2018-05-25T10:58:02.470Z,100608.13
2018-05-25T11:00:30.131Z,100608.47
2018-05-25T11:02:57.739Z,100601.19
2018-05-25T11:05:25.543Z,100604.91
2018-05-25T11:07:53.314Z,100608.08
2018-05-25T11:10:20.971Z,100602.86
2018-05-25T11:12:48.587Z,100608.22
2018-05-25T11:15:16.247Z,100604.80
2018-05-25T11:17:43.853Z,100608.43
2018-05-25T11:20:11.509Z,100609.44
2018-05-25T11:22:39.127Z,100599.23
2018-05-25T11:25:06.836Z,100603.14
2018-05-25T11:27:34.566Z,100592.61
2018-05-25T11:30:02.470Z,100589.31
2018-05-25T11:32:30.127Z,100580.55
2018-05-25T11:34:57.998Z,100579.48
2018-05-25T11:37:25.712Z,100570.21
2018-05-25T11:39:53.456Z,100574.92
2018-05-25T11:42:21.189Z,100571.66
2018-05-25T11:44:49.056Z,100573.74
2018-05-25T11:47:16.820Z,100566.59
2018-05-25T11:49:44.479Z,100562.37
2018-05-25T11:52:12.212Z,100563.91
2018-05-25T11:54:39.879Z,100561.33
2018-05-25T11:57:07.494Z,100560.50
2018-05-25T11:59:35.146Z,100567.12
2018-05-25T12:02:02.759Z,100560.13
2018-05-25T12:04:30.420Z,100556.69
2018-05-25T12:06:58.035Z,100560.25
2018-05-25T12:09:25.690Z,100556.89
2018-05-25T12:11:53.318Z,100560.88
2018-05-25T12:14:20.977Z,100558.26
2018-05-25T12:16:48.601Z,100560.16
2018-05-25T12:19:16.263Z,100553.30
2018-05-25T12:21:43.877Z,100550.95
2018-05-25T12:24:11.534Z,100554.42
2018-05-25T12:26:39.139Z,100551.66
2018-05-25T12:29:06.803Z,100551.08
2018-05-25T12:31:34.423Z,100554.84
2018-05-25T12:34:02.081Z,100547.72
2018-05-25T12:36:29.699Z,100549.61
2018-05-25T12:38:57.411Z,100546.94
2018-05-25T12:41:25.015Z,100546.54
2018-05-25T12:43:52.675Z,100543.88
2018-05-25T12:46:20.291Z,100543.25
2018-05-25T12:48:47.956Z,100546.62
2018-05-25T12:51:15.575Z,100552.08
2018-05-25T12:53:43.238Z,100552.97
2018-05-25T12:56:10.849Z,100557.78
2018-05-25T12:58:38.462Z,100555.14
2018-05-25T13:01:06.105Z,100552.13
2018-05-25T13:03:33.728Z,100549.23
2018-05-25T13:06:01.388Z,100544.60
2018-05-25T13:08:28.991Z,100552.41
2018-05-25T13:10:56.643Z,100547.25
2018-05-25T13:13:24.242Z,100542.52
2018-05-25T13:15:51.894Z,100549.53
2018-05-25T13:18:19.502Z,100547.22
2018-05-25T13:20:47.151Z,100539.09
2018-05-25T13:23:14.760Z,100535.59
2018-05-25T13:25:42.411Z,100533.35
2018-05-25T13:28:10.018Z,100530.41
2018-05-25T13:30:37.663Z,100534.78
2018-05-25T13:33:05.275Z,100526.58
2018-05-25T13:35:32.922Z,100529.57
2018-05-25T13:38:00.526Z,100524.76
2018-05-25T13:40:28.171Z,100529.37
2018-05-25T13:42:55.782Z,100522.33
2018-05-25T13:45:23.427Z,100522.47
2018-05-25T13:47:51.031Z,100525.74
2018-05-25T13:50:18.683Z,100520.92
2018-05-25T13:52:46.292Z,100524.72
2018-05-25T13:55:14.840Z,100536.45
2018-05-25T13:57:42.450Z,100531.08
2018-05-25T14:00:10.094Z,100523.61
2018-05-25T14:02:37.693Z,100520.15
2018-05-25T14:05:05.334Z,100523.29
2018-05-25T14:07:32.940Z,100530.58
2018-05-25T14:10:00.588Z,100531.81
2018-05-25T14:12:28.196Z,100529.92
2018-05-25T14:14:55.839Z,100533.31
2018-05-25T14:17:23.441Z,100528.03
2018-05-25T14:19:51.102Z,100532.71
2018-05-25T14:22:18.719Z,100523.12
2018-05-25T14:24:46.368Z,100525.71
2018-05-25T14:27:13.974Z,100524.55
2018-05-25T14:29:41.632Z,100521.47
2018-05-25T14:32:09.240Z,100520.67
2018-05-25T14:34:36.887Z,100509.59
2018-05-25T14:37:04.494Z,100517.80
2018-05-25T14:39:32.143Z,100517.11
2018-05-25T14:41:59.742Z,100518.25
2018-05-25T14:44:27.395Z,100511.17
2018-05-25T14:46:55.000Z,100511.03
2018-05-25T14:49:22.651Z,100511.05
2018-05-25T14:51:50.259Z,100494.86
2018-05-25T14:54:17.901Z,100500.47
2018-05-25T14:56:45.552Z,100501.16
2018-05-25T14:59:13.160Z,100503.53
2018-05-25T15:01:40.802Z,100506.29
2018-05-25T15:04:08.411Z,100507.24
2018-05-25T15:06:36.150Z,100504.97
2018-05-25T15:09:03.855Z,100499.23
2018-05-25T15:11:31.499Z,100502.86
2018-05-25T15:13:59.113Z,100507.99
2018-05-25T15:16:26.771Z,100511.67
2018-05-25T15:18:54.384Z,100517.92
2018-05-25T15:21:22.066Z,100510.49
2018-05-25T15:23:49.680Z,100510.08
2018-05-25T15:26:17.331Z,100512.89
2018-05-25T15:28:44.934Z,100513.05
2018-05-25T15:31:13.355Z,100517.77
2018-05-25T15:33:40.975Z,100512.13
2018-05-25T15:36:08.642Z,100503.18
2018-05-25T15:38:36.248Z,100497.09
2018-05-25T15:41:03.904Z,100495.03
2018-05-25T15:43:31.572Z,100496.92
2018-05-25T15:45:59.225Z,100494.91
2018-05-25T15:48:26.836Z,100487.11
2018-05-25T15:50:54.479Z,100480.27
2018-05-25T15:53:22.089Z,100479.35
2018-05-25T15:55:49.743Z,100477.66
2018-05-25T15:58:17.356Z,100481.72
2018-05-25T16:00:45.002Z,100479.42
2018-05-25T16:03:12.608Z,100475.52
2018-05-25T16:05:40.258Z,100478.04
2018-05-25T16:08:07.865Z,100477.72
2018-05-25T16:10:36.334Z,100474.03
2018-05-25T16:13:03.938Z,100474.00
2018-05-25T16:15:31.584Z,100472.80
2018-05-25T16:17:59.195Z,100469.06
2018-05-25T16:20:26.844Z,100466.48
2018-05-25T16:22:54.451Z,100463.88
2018-05-25T16:25:22.103Z,100462.84
2018-05-25T16:27:49.718Z,100463.50
2018-05-25T16:30:17.367Z,100454.21
2018-05-25T16:32:44.978Z,100461.81
2018-05-25T16:35:12.623Z,100463.72
2018-05-25T16:37:40.232Z,100464.41
2018-05-25T16:40:07.913Z,100452.95
2018-05-25T16:42:35.527Z,100452.62
2018-05-25T16:45:03.175Z,100448.72
2018-05-25T16:47:30.780Z,100444.11
2018-05-25T16:49:58.423Z,100441.92
2018-05-25T16:52:26.026Z,100438.44
2018-05-25T16:54:53.688Z,100442.15
2018-05-25T16:57:21.300Z,100443.86
2018-05-25T16:59:48.942Z,100441.02
2018-05-25T17:02:16.553Z,100439.48
2018-05-25T17:04:44.186Z,100440.13
2018-05-25T17:07:11.840Z,100444.05
2018-05-25T17:09:39.448Z,100438.22
2018-05-25T17:12:07.095Z,100439.45
2018-05-25T17:14:34.699Z,100433.63
2018-05-25T17:17:02.346Z,100440.77
2018-05-25T17:19:29.963Z,100440.69
2018-05-25T17:21:57.606Z,100446.48
2018-05-25T17:24:25.248Z,100444.14
2018-05-25T17:26:52.898Z,100447.63
2018-05-25T17:29:20.506Z,100446.69
2018-05-25T17:31:48.161Z,100455.37
2018-05-25T17:34:15.768Z,100456.00
2018-05-25T17:36:43.415Z,100454.81
2018-05-25T17:39:11.024Z,100458.95
2018-05-25T17:41:38.687Z,100452.91
2018-05-25T17:44:06.302Z,100450.89
2018-05-25T17:46:33.982Z,100454.21
2018-05-25T17:49:01.593Z,100455.81
2018-05-25T17:51:29.242Z,100453.80
2018-05-25T17:53:56.847Z,100460.47
2018-05-25T17:56:24.491Z,100452.00
2018-05-25T17:58:52.100Z,100459.30
2018-05-25T18:01:19.741Z,100460.43
2018-05-25T18:03:47.355Z,100462.14
2018-05-25T18:06:15.012Z,100457.42
2018-05-25T18:08:42.615Z,100455.03
2018-05-25T18:11:10.271Z,100456.95
2018-05-25T18:13:38.032Z,100461.20
2018-05-25T18:16:05.695Z,100455.67
2018-05-25T18:18:33.415Z,100459.50
2018-05-25T18:21:01.124Z,100459.56
2018-05-25T18:23:28.887Z,100468.36
2018-05-25T18:25:56.753Z,100464.98
2018-05-25T18:28:24.517Z,100466.69
2018-05-25T18:30:52.388Z,100466.93
2018-05-25T18:33:20.092Z,100473.83
2018-05-25T18:35:47.913Z,100473.14
2018-05-25T18:38:15.630Z,100476.71
2018-05-25T18:40:43.442Z,100474.91
2018-05-25T18:43:11.159Z,100481.69
2018-05-25T18:45:38.971Z,100480.75
2018-05-25T18:48:06.700Z,100486.98
2018-05-25T18:50:34.398Z,100482.46
2018-05-25T18:53:02.163Z,100483.06
2018-05-25T18:55:29.927Z,100480.86
2018-05-25T18:57:57.636Z,100482.22
2018-05-25T19:00:25.455Z,100482.22
2018-05-25T19:02:53.119Z,100482.76
2018-05-25T19:05:20.881Z,100491.70
2018-05-25T19:07:48.609Z,100491.94
2018-05-25T19:10:16.412Z,100495.32
2018-05-25T19:12:44.068Z,100498.91
2018-05-25T19:15:11.737Z,100496.48
2018-05-25T19:17:39.401Z,100502.59
2018-05-25T19:20:07.162Z,100501.77
2018-05-25T19:22:34.927Z,100504.11
2018-05-25T19:25:02.694Z,100507.22
2018-05-25T19:27:30.456Z,100512.58
2018-05-25T19:29:58.119Z,100509.83
2018-05-25T19:32:25.922Z,100510.07
2018-05-25T19:34:53.648Z,100512.30
2018-05-25T19:37:21.359Z,100515.02
2018-05-25T19:39:49.069Z,100515.02
2018-05-25T19:42:16.841Z,100515.91
2018-05-25T19:44:44.604Z,100528.30
2018-05-25T19:47:12.369Z,100527.72
2018-05-25T19:49:40.098Z,100523.15
2018-05-25T19:52:07.899Z,100519.33
2018-05-25T19:54:35.662Z,100524.97
2018-05-25T19:57:03.530Z,100533.00
2018-05-25T19:59:31.293Z,100532.50
2018-05-25T20:01:59.162Z,100537.70
2018-05-25T20:04:26.821Z,100538.15
2018-05-25T20:06:54.586Z,100539.77
2018-05-25T20:09:22.304Z,100545.41
2018-05-25T20:11:50.116Z,100546.58
2018-05-25T20:14:17.778Z,100547.19
2018-05-25T20:16:45.481Z,100542.41
2018-05-25T20:19:13.297Z,100544.11
2018-05-25T20:21:41.014Z,100540.23
2018-05-25T20:24:09.095Z,100538.87
2018-05-25T20:26:36.911Z,100549.58
2018-05-25T20:29:05.491Z,100543.52
2018-05-25T20:31:33.256Z,100546.78
2018-05-25T20:34:01.024Z,100547.69
2018-05-25T20:36:28.887Z,100541.32
2018-05-25T20:38:56.608Z,100543.39
2018-05-25T20:41:24.416Z,100541.90
2018-05-25T20:43:52.181Z,100536.87
2018-05-25T20:46:19.845Z,100533.73
2018-05-25T20:48:47.632Z,100526.20
2018-05-25T20:51:15.375Z,100530.78
2018-05-25T20:53:43.085Z,100530.21
2018-05-25T20:56:10.901Z,100530.99
2018-05-25T20:58:38.665Z,100525.52
2018-05-25T21:01:06.386Z,100528.81
2018-05-25T21:03:34.194Z,100529.63
2018-05-25T21:06:01.922Z,100528.56
2018-05-25T21:08:29.725Z,100532.73
2018-05-25T21:10:57.592Z,100536.31
2018-05-25T21:13:25.355Z,100529.88
2018-05-25T21:15:53.119Z,100537.22
2018-05-25T21:18:20.887Z,100548.77
2018-05-25T21:20:48.652Z,100543.15
2018-05-25T21:23:16.470Z,100547.77
2018-05-25T21:25:44.281Z,100549.80
2018-05-25T21:28:12.104Z,100549.18
2018-05-25T21:30:39.911Z,100553.22
2018-05-25T21:33:07.677Z,100550.13
2018-05-25T21:35:35.402Z,100553.16
2018-05-25T21:38:03.118Z,100555.39
2018-05-25T21:40:30.765Z,100555.47
2018-05-25T21:42:58.531Z,100557.55
2018-05-25T21:45:26.192Z,100561.13
2018-05-25T21:47:54.061Z,100558.11
2018-05-25T21:50:21.785Z,100566.91
2018-05-25T21:52:49.587Z,100567.45
2018-05-25T21:55:17.313Z,100567.83
2018-05-25T21:57:45.058Z,100567.08
2018-05-25T22:00:12.786Z,100563.75
2018-05-25T22:02:40.649Z,100567.72
2018-05-25T22:05:08.410Z,100574.44
2018-05-25T22:07:36.175Z,100568.57
2018-05-25T22:10:03.944Z,100572.05
2018-05-25T22:12:31.806Z,100578.27
2018-05-25T22:14:59.523Z,100571.67
2018-05-25T22:17:27.336Z,100575.22
2018-05-25T22:19:54.997Z,100576.63
2018-05-25T22:22:22.729Z,100577.63
2018-05-25T22:24:50.526Z,100581.39
2018-05-25T22:27:18.291Z,100585.58
2018-05-25T22:29:46.000Z,100580.89
2018-05-25T22:32:13.817Z,100572.22
2018-05-25T22:34:41.584Z,100581.20
2018-05-25T22:37:09.247Z,100577.53
2018-05-25T22:39:37.071Z,100574.70
2018-05-25T22:42:04.334Z,100569.71
2018-05-25T22:44:43.906Z,100572.31
2018-05-25T22:47:23.652Z,100569.05
2018-05-25T22:50:04.116Z,100572.84
2018-05-25T22:52:36.900Z,100578.78
2018-05-25T22:55:04.654Z,100577.74
2018-05-25T22:57:32.323Z,100574.41
2018-05-25T23:00:00.024Z,100571.29
2018-05-25T23:02:27.841Z,100566.67
2018-05-25T23:04:55.558Z,100570.87
2018-05-25T23:07:23.277Z,100573.87
2018-05-25T23:09:50.992Z,100580.59
2018-05-25T23:12:18.811Z,100575.67
2018-05-25T23:14:46.525Z,100581.29
2018-05-25T23:17:14.234Z,100586.74
2018-05-25T23:19:41.896Z,100584.84
2018-05-25T23:22:09.662Z,100579.74
2018-05-25T23:24:37.322Z,100584.02
2018-05-25T23:27:05.088Z,100577.76
2018-05-25T23:29:32.828Z,100582.55
2018-05-25T23:32:00.719Z,100592.41
2018-05-25T23:34:28.437Z,100583.81
2018-05-25T23:36:56.147Z,100588.19
2018-05-25T23:39:23.972Z,100589.24
2018-05-25T23:41:51.673Z,100578.57
2018-05-25T23:44:19.380Z,100588.20
2018-05-25T23:46:47.100Z,100585.58
2018-05-25T23:49:14.867Z,100592.68
2018-05-25T23:51:42.630Z,100584.64
2018-05-25T23:54:10.348Z,100585.95
2018-05-25T23:56:38.058Z,100589.05
2018-05-25T23:59:05.782Z,100594.77
